Time;durP1;ratioP1;P1;durP2;ratioP2;P2;SDS_P1;SDS_P2;PMS_P1;PMS_P2;Temp;Humidity;BMP_temperature;BMP_pressure;BME280_temperature;BME280_humidity;BME280_pressure;Samples;Min_cycle;Max_cycle;Signal;HPM_P1;HPM_P2
2023/12/31 00:00:08;;;;;;;;;;;;;;;6.26;64.76;99993.19;5093317;28;20006;-82
2023/12/31 00:02:34;;;;;;;;;;;;;;;6.27;64.96;99989.59;5093015;28;20362;-81
2023/12/31 00:04:59;;;;;;;;;;;;;;;6.24;64.92;99998.56;5092997;28;19955;-81
2023/12/31 00:07:26;;;;;;;;;;;;;;;6.22;65.08;99994.44;5091338;28;19998;-81
2023/12/31 00:09:51;;;;;;;;;;;;;;;6.20;65.54;99994.56;5091537;28;20269;-81
2023/12/31 00:12:17;;;;;;;;;;;;;;;6.21;65.45;99990.97;5092788;28;20018;-82
2023/12/31 00:14:42;;;;;;;;;;;;;;;6.18;65.67;99987.81;5091590;28;20006;-82
2023/12/31 00:17:07;;;;;;;;;;;;;;;6.14;65.08;99982.00;5092779;28;19912;-81
2023/12/31 00:19:33;;;;;;;;;;;;;;;6.14;65.25;99987.25;5092637;28;19912;-81
2023/12/31 00:21:58;;;;;;;;;;;;;;;6.08;65.86;99979.94;5091424;28;19916;-82
2023/12/31 00:24:23;;;;;;;;;;;;;;;6.07;65.38;99982.72;5092643;28;19912;-82
2023/12/31 00:26:49;;;;;;;;;;;;;;;6.09;65.88;99988.66;5092713;28;20058;-82
2023/12/31 00:29:14;;;;;;;;;;;;;;;6.10;65.92;99983.25;5091035;28;20346;-82
2023/12/31 00:31:39;;;;;;;;;;;;;;;6.11;65.42;99986.72;5092195;28;19923;-81
2023/12/31 00:34:04;;;;;;;;;;;;;;;6.12;65.19;99988.38;5092403;28;19916;-81
2023/12/31 00:36:31;;;;;;;;;;;;;;;6.09;65.14;99994.72;5091109;28;19977;-82
2023/12/31 00:38:56;;;;;;;;;;;;;;;6.08;65.13;99993.06;5091181;28;19912;-82
2023/12/31 00:41:21;;;;;;;;;;;;;;;6.12;65.69;99998.84;5092369;28;20385;-81
2023/12/31 00:43:47;;;;;;;;;;;;;;;6.10;65.17;99995.53;5092367;28;19948;-81
2023/12/31 00:46:13;;;;;;;;;;;;;;;6.10;65.60;100003.41;5091087;28;20002;-82
2023/12/31 00:48:38;;;;;;;;;;;;;;;6.12;65.38;99997.06;5090966;28;20453;-82
2023/12/31 00:51:04;;;;;;;;;;;;;;;6.14;65.66;99987.25;5090909;28;20126;-81
2023/12/31 00:53:29;;;;;;;;;;;;;;;6.14;65.73;99989.88;5091253;28;19949;-81
2023/12/31 00:55:54;;;;;;;;;;;;;;;6.13;65.36;99988.22;5092262;28;19916;-82
2023/12/31 00:58:20;;;;;;;;;;;;;;;6.13;65.05;99990.84;5092264;28;20347;-82
2023/12/31 01:00:45;;;;;;;;;;;;;;;6.10;65.30;99991.13;5090747;28;19951;-81
2023/12/31 01:03:10;;;;;;;;;;;;;;;6.08;65.74;99993.06;5090876;28;20359;-81
2023/12/31 01:05:36;;;;;;;;;;;;;;;6.07;66.18;99995.81;5091998;28;19912;-81
2023/12/31 01:08:01;;;;;;;;;;;;;;;6.04;65.82;99997.75;5090662;28;20396;-82
2023/12/31 01:10:27;;;;;;;;;;;;;;;6.04;65.61;99996.91;5090852;28;19924;-82
2023/12/31 01:12:52;;;;;;;;;;;;;;;6.04;65.46;99995.13;5091929;28;19935;-82
2023/12/31 01:15:17;;;;;;;;;;;;;;;6.05;65.90;99994.16;5090470;28;19912;-82
2023/12/31 01:17:42;;;;;;;;;;;;;;;6.03;65.66;99987.41;5090770;28;19912;-82
2023/12/31 01:20:08;;;;;;;;;;;;;;;6.05;65.55;100002.03;5090761;28;19994;-82
2023/12/31 01:22:33;;;;;;;;;;;;;;;6.08;65.37;99986.97;5091820;28;19916;-81
2023/12/31 01:24:59;;;;;;;;;;;;;;;6.07;65.09;99987.94;5091876;28;20009;-82
2023/12/31 01:27:24;;;;;;;;;;;;;;;6.08;66.10;99986.97;5091836;28;20409;-82
2023/12/31 01:29:49;;;;;;;;;;;;;;;6.07;66.11;99991.41;5090335;28;19919;-82
2023/12/31 01:32:14;;;;;;;;;;;;;;;6.07;65.42;99986.16;5090882;28;20007;-82
2023/12/31 01:34:40;;;;;;;;;;;;;;;6.06;65.58;99976.63;5090658;28;19912;-82
2023/12/31 01:37:06;;;;;;;;;;;;;;;6.07;65.90;99980.09;5090490;28;19967;-82
2023/12/31 01:39:31;;;;;;;;;;;;;;;6.07;65.98;99978.28;5090527;28;19969;-82
2023/12/31 01:41:56;;;;;;;;;;;;;;;6.09;65.36;99976.38;5091794;28;19916;-82
2023/12/31 01:44:22;;;;;;;;;;;;;;;6.09;65.60;99973.75;5093644;28;20399;-82
2023/12/31 01:46:47;;;;;;;;;;;;;;;6.09;65.61;99972.91;5095755;28;19965;-82
2023/12/31 01:49:12;;;;;;;;;;;;;;;6.05;65.33;99975.81;5094278;28;19912;-83
2023/12/31 01:51:38;;;;;;;;;;;;;;;6.02;65.43;99985.75;5094207;28;20415;-81
2023/12/31 01:54:04;;;;;;;;;;;;;;;6.00;65.59;99980.66;5094299;28;19912;-83
2023/12/31 01:56:31;;;;;;;;;;;;;;;6.00;65.57;99985.06;5094067;28;19953;-82
2023/12/31 01:58:58;;;;;;;;;;;;;;;5.93;65.82;99981.31;5095466;28;20411;-81
2023/12/31 02:01:23;;;;;;;;;;;;;;;5.93;66.11;99973.44;5094064;28;20011;-81
2023/12/31 02:03:49;;;;;;;;;;;;;;;5.93;66.31;99981.31;5095202;28;19939;-81
2023/12/31 02:06:14;;;;;;;;;;;;;;;5.92;66.16;99975.22;5095199;28;19920;-81
2023/12/31 02:08:39;;;;;;;;;;;;;;;5.96;65.76;99973.19;5095133;28;19912;-80
2023/12/31 02:11:05;;;;;;;;;;;;;;;6.00;65.35;99971.94;5094947;28;19920;-81
2023/12/31 02:13:30;;;;;;;;;;;;;;;6.03;65.32;99972.50;5095425;28;20273;-82
2023/12/31 02:15:56;;;;;;;;;;;;;;;6.03;66.04;99972.50;5095032;28;19950;-81
2023/12/31 02:18:21;;;;;;;;;;;;;;;6.05;65.91;99969.75;5093549;28;20309;-81
2023/12/31 02:20:46;;;;;;;;;;;;;;;6.06;65.76;99974.03;5094890;28;19916;-81
2023/12/31 02:23:11;;;;;;;;;;;;;;;6.07;65.94;99969.59;5093752;28;19913;-81
2023/12/31 02:25:38;;;;;;;;;;;;;;;6.07;65.38;99967.81;5093517;28;20310;-81
2023/12/31 02:28:07;;;;;;;;;;;;;;;6.06;66.19;99976.63;5094139;28;19999;-81
2023/12/31 02:30:32;;;;;;;;;;;;;;;6.04;65.43;99971.53;5093357;28;19988;-81
2023/12/31 02:32:57;;;;;;;;;;;;;;;6.03;65.56;99974.28;5094562;28;19947;-81
2023/12/31 02:35:23;;;;;;;;;;;;;;;6.03;65.59;99963.81;5094635;28;20347;-81
2023/12/31 02:37:48;;;;;;;;;;;;;;;6.00;66.04;99966.72;5093312;28;19959;-81
2023/12/31 02:40:13;;;;;;;;;;;;;;;5.96;66.23;99971.41;5094616;28;19919;-81
2023/12/31 02:42:38;;;;;;;;;;;;;;;5.97;66.17;99966.97;5093259;28;20312;-81
2023/12/31 02:45:04;;;;;;;;;;;;;;;5.95;66.89;99966.28;5094574;28;19919;-81
2023/12/31 02:47:29;;;;;;;;;;;;;;;5.95;66.15;99959.25;5093170;28;20465;-81
2023/12/31 02:49:55;;;;;;;;;;;;;;;5.96;66.17;99968.78;5094228;28;19912;-81
2023/12/31 02:52:20;;;;;;;;;;;;;;;6.01;66.05;99969.19;5092872;28;19916;-81
2023/12/31 02:54:45;;;;;;;;;;;;;;;6.05;66.30;99974.97;5092900;28;19990;-81
2023/12/31 02:57:11;;;;;;;;;;;;;;;6.07;65.84;99977.47;5092866;28;19912;-81
2023/12/31 02:59:36;;;;;;;;;;;;;;;6.07;65.52;99975.66;5093047;28;19997;-81
2023/12/31 03:02:02;;;;;;;;;;;;;;;6.07;66.07;99975.66;5094074;28;19912;-81
2023/12/31 03:04:28;;;;;;;;;;;;;;;6.05;66.10;99977.59;5094265;28;20407;-81
2023/12/31 03:06:53;;;;;;;;;;;;;;;6.10;65.87;99985.06;5092767;28;20003;-81
2023/12/31 03:09:19;;;;;;;;;;;;;;;6.11;65.66;99982.28;5094001;28;19912;-81
2023/12/31 03:11:44;;;;;;;;;;;;;;;6.12;66.13;99986.56;5092796;28;19922;-81
2023/12/31 03:14:09;;;;;;;;;;;;;;;6.11;65.84;99984.09;5092753;28;19912;-82
2023/12/31 03:16:35;;;;;;;;;;;;;;;6.10;65.65;99983.25;5093846;28;19945;-81
2023/12/31 03:19:00;;;;;;;;;;;;;;;6.10;65.58;99993.75;5093863;28;19915;-83
2023/12/31 03:21:25;;;;;;;;;;;;;;;6.12;65.75;99999.69;5092555;28;20381;-81
2023/12/31 03:23:51;;;;;;;;;;;;;;;6.12;65.50;99994.44;5093889;28;19919;-81
2023/12/31 03:26:16;;;;;;;;;;;;;;;6.14;65.76;99994.28;5092260;28;20006;-81
2023/12/31 03:28:42;;;;;;;;;;;;;;;6.11;66.06;99998.03;5092272;28;20389;-81
2023/12/31 03:31:08;;;;;;;;;;;;;;;6.13;66.15;100001.34;5093394;28;19916;-81
2023/12/31 03:33:33;;;;;;;;;;;;;;;6.11;65.71;99995.41;5092085;28;19942;-81
2023/12/31 03:35:59;;;;;;;;;;;;;;;6.11;65.94;100011.13;5093334;28;19912;-81
2023/12/31 03:38:24;;;;;;;;;;;;;;;6.09;65.80;100005.19;5093573;28;20356;-80
2023/12/31 03:40:49;;;;;;;;;;;;;;;6.04;66.50;100010.03;5093500;28;19912;-81
2023/12/31 03:43:14;;;;;;;;;;;;;;;6.02;66.47;99996.22;5092028;28;19955;-81
2023/12/31 03:45:40;;;;;;;;;;;;;;;5.96;66.57;99999.41;5093320;28;19912;-81
2023/12/31 03:48:05;;;;;;;;;;;;;;;5.98;66.91;100005.34;5093495;28;19936;-81
2023/12/31 03:50:31;;;;;;;;;;;;;;;6.02;66.32;100004.09;5092007;28;19912;-81
2023/12/31 03:52:56;;;;;;;;;;;;;;;6.02;66.99;100006.72;5093332;28;19961;-81
2023/12/31 03:55:22;;;;;;;;;;;;;;;6.07;66.16;100008.91;5093169;28;19944;-82
2023/12/31 03:57:47;;;;;;;;;;;;;;;6.11;66.72;100011.13;5091882;28;20308;-81
2023/12/31 04:00:13;;;;;;;;;;;;;;;6.13;66.48;100005.75;5091898;28;19912;-80
2023/12/31 04:02:38;;;;;;;;;;;;;;;6.10;66.96;100014.72;5091771;28;19912;-81
2023/12/31 04:05:04;;;;;;;;;;;;;;;6.12;66.42;100009.34;5093014;28;20006;-81
2023/12/31 04:07:30;;;;;;;;;;;;;;;6.17;66.39;100009.75;5091018;28;19963;-81
2023/12/31 04:09:55;;;;;;;;;;;;;;;6.21;66.08;100005.88;5091561;28;19919;-81
2023/12/31 04:12:20;;;;;;;;;;;;;;;6.22;66.26;100013.59;5092679;28;19981;-81
2023/12/31 04:14:45;;;;;;;;;;;;;;;6.19;66.27;100013.06;5092780;28;19920;-81
2023/12/31 04:17:11;;;;;;;;;;;;;;;6.19;67.10;100013.06;5092811;28;19916;-82
2023/12/31 04:19:36;;;;;;;;;;;;;;;6.17;66.62;100010.56;5092638;28;19961;-81
2023/12/31 04:22:01;;;;;;;;;;;;;;;6.16;66.68;100011.53;5093219;28;19912;-81
2023/12/31 04:24:27;;;;;;;;;;;;;;;6.15;67.09;100009.06;5091454;28;20312;-81
2023/12/31 04:26:52;;;;;;;;;;;;;;;6.18;67.24;100016.66;5091346;28;19915;-82
2023/12/31 04:29:17;;;;;;;;;;;;;;;6.19;66.88;100013.06;5092394;28;20397;-80
2023/12/31 04:31:43;;;;;;;;;;;;;;;6.20;66.97;100012.91;5092241;28;19999;-81
2023/12/31 04:34:08;;;;;;;;;;;;;;;6.21;66.99;100011.97;5091590;28;19935;-81
2023/12/31 04:36:33;;;;;;;;;;;;;;;6.22;67.09;100011.00;5092303;28;19917;-81
2023/12/31 04:38:59;;;;;;;;;;;;;;;6.28;66.49;100006.97;5090925;28;19912;-81
2023/12/31 04:41:24;;;;;;;;;;;;;;;6.29;66.59;99998.97;5090953;28;20452;-81
2023/12/31 04:43:49;;;;;;;;;;;;;;;6.33;66.60;100005.59;5090838;28;19912;-82
2023/12/31 04:46:17;;;;;;;;;;;;;;;6.33;66.75;100005.59;5091001;28;19916;-81
2023/12/31 04:48:42;;;;;;;;;;;;;;;6.36;66.77;100009.72;5091020;28;19912;-82
2023/12/31 04:51:07;;;;;;;;;;;;;;;6.37;66.33;100006.16;5092245;28;19932;-81
2023/12/31 04:53:33;;;;;;;;;;;;;;;6.37;66.27;100009.59;5090855;28;19912;-82
2023/12/31 04:55:58;;;;;;;;;;;;;;;6.39;67.22;100014.69;5091899;28;19954;-81
2023/12/31 04:58:24;;;;;;;;;;;;;;;6.37;66.66;100000.91;5092154;28;20404;-83
2023/12/31 05:00:49;;;;;;;;;;;;;;;6.38;66.66;99998.13;5092331;28;19970;-81
2023/12/31 05:03:14;;;;;;;;;;;;;;;6.37;66.96;100001.72;5091858;28;19920;-81
2023/12/31 05:05:39;;;;;;;;;;;;;;;6.36;66.85;100010.56;5091808;28;20005;-81
2023/12/31 05:08:05;;;;;;;;;;;;;;;6.36;67.60;100004.50;5090593;28;19916;-81
2023/12/31 05:10:30;;;;;;;;;;;;;;;6.33;66.84;100010.84;5091872;28;19945;-81
2023/12/31 05:12:55;;;;;;;;;;;;;;;6.32;66.83;100019.69;5092153;28;20367;-81
2023/12/31 05:15:20;;;;;;;;;;;;;;;6.32;66.69;100024.91;5090802;28;19912;-81
2023/12/31 05:17:46;;;;;;;;;;;;;;;6.33;67.17;100017.88;5090651;28;20448;-81
2023/12/31 05:20:11;;;;;;;;;;;;;;;6.34;66.63;100025.63;5095408;28;19912;-81
2023/12/31 05:22:36;;;;;;;;;;;;;;;6.36;67.07;100025.47;5096288;28;19912;-81
2023/12/31 05:25:01;;;;;;;;;;;;;;;6.34;66.42;100028.22;5096073;28;20007;-82
2023/12/31 05:27:27;;;;;;;;;;;;;;;6.32;66.82;100030.16;5096095;28;19973;-81
2023/12/31 05:29:52;;;;;;;;;;;;;;;6.29;66.23;100029.63;5095867;28;20377;-82
2023/12/31 05:32:17;;;;;;;;;;;;;;;6.25;66.26;100031.69;5095549;28;19999;-81
2023/12/31 05:34:42;;;;;;;;;;;;;;;6.24;67.06;100043.16;5094245;28;19911;-81
2023/12/31 05:37:08;;;;;;;;;;;;;;;6.23;66.59;100035.41;5094700;28;19946;-81
2023/12/31 05:39:33;;;;;;;;;;;;;;;6.21;66.52;100032.94;5094588;28;19912;-81
2023/12/31 05:41:58;;;;;;;;;;;;;;;6.20;66.44;100033.91;5095744;28;19944;-81
2023/12/31 05:44:23;;;;;;;;;;;;;;;6.19;66.70;100032.25;5095749;28;19953;-82
2023/12/31 05:46:49;;;;;;;;;;;;;;;6.19;66.89;100028.78;5095816;28;19913;-81
2023/12/31 05:49:14;;;;;;;;;;;;;;;6.17;66.37;100034.19;5094366;28;19908;-81
2023/12/31 05:51:39;;;;;;;;;;;;;;;6.20;66.99;100031.28;5094171;28;20415;-81
2023/12/31 05:54:04;;;;;;;;;;;;;;;6.19;66.47;100029.63;5094154;28;19923;-81
2023/12/31 05:56:30;;;;;;;;;;;;;;;6.23;67.00;100030.16;5094072;28;19912;-81
2023/12/31 05:58:55;;;;;;;;;;;;;;;6.24;66.92;100027.41;5095309;28;19912;-81
2023/12/31 06:01:21;;;;;;;;;;;;;;;6.25;66.73;100029.06;5095315;28;19946;-81
2023/12/31 06:03:46;;;;;;;;;;;;;;;6.22;66.63;100034.59;5095212;28;19916;-81
2023/12/31 06:06:11;;;;;;;;;;;;;;;6.23;67.65;100035.41;5093872;28;20320;-81
2023/12/31 06:08:37;;;;;;;;;;;;;;;6.18;67.13;100035.81;5095167;28;19962;-82
2023/12/31 06:11:02;;;;;;;;;;;;;;;6.16;67.50;100019.41;5093955;28;19916;-84
2023/12/31 06:13:27;;;;;;;;;;;;;;;6.16;67.27;100024.66;5095143;28;19912;-81
2023/12/31 06:15:52;;;;;;;;;;;;;;;6.18;67.11;100021.88;5095230;28;19919;-81
2023/12/31 06:18:18;;;;;;;;;;;;;;;6.18;67.50;100022.72;5093661;28;19912;-81
2023/12/31 06:20:43;;;;;;;;;;;;;;;6.19;67.67;100026.16;5094846;28;19916;-81
2023/12/31 06:23:08;;;;;;;;;;;;;;;6.20;67.89;100022.59;5094910;28;19912;-81
2023/12/31 06:25:34;;;;;;;;;;;;;;;6.24;68.19;100026.59;5094731;28;20393;-81
2023/12/31 06:27:59;;;;;;;;;;;;;;;6.33;67.85;100028.38;5094990;28;20373;-81
2023/12/31 06:30:24;;;;;;;;;;;;;;;6.39;67.37;100030.44;5092991;28;19923;-81
2023/12/31 06:32:50;;;;;;;;;;;;;;;6.43;67.44;100036.22;5093235;28;19923;-82
2023/12/31 06:35:15;;;;;;;;;;;;;;;6.46;67.49;100035.94;5093270;28;19981;-81
2023/12/31 06:37:40;;;;;;;;;;;;;;;6.50;66.81;100037.34;5093132;28;19912;-82
2023/12/31 06:40:07;;;;;;;;;;;;;;;6.48;66.86;100040.09;5094684;28;19921;-81
2023/12/31 06:42:32;;;;;;;;;;;;;;;6.52;66.78;100048.50;5094389;28;20394;-82
2023/12/31 06:44:57;;;;;;;;;;;;;;;6.57;67.23;100047.13;5094166;28;19938;-81
2023/12/31 06:47:22;;;;;;;;;;;;;;;6.60;67.05;100046.84;5093200;28;19935;-82
2023/12/31 06:49:48;;;;;;;;;;;;;;;6.65;66.65;100047.25;5093346;28;19913;-81
2023/12/31 06:52:13;;;;;;;;;;;;;;;6.70;66.66;100044.22;5094305;28;19916;-81
2023/12/31 06:54:39;;;;;;;;;;;;;;;6.74;66.95;100040.34;5094215;28;20395;-83
2023/12/31 06:57:04;;;;;;;;;;;;;;;6.78;66.50;100046.16;5094111;28;20313;-82
2023/12/31 06:59:30;;;;;;;;;;;;;;;6.79;66.53;100040.75;5092633;28;19995;-83
2023/12/31 07:01:55;;;;;;;;;;;;;;;6.82;66.92;100047.53;5093817;28;19916;-81
2023/12/31 07:04:20;;;;;;;;;;;;;;;6.86;66.58;100048.91;5094143;28;19912;-81
2023/12/31 07:06:45;;;;;;;;;;;;;;;6.90;66.58;100053.72;5093928;28;19927;-82
2023/12/31 07:09:11;;;;;;;;;;;;;;;6.95;66.04;100054.13;5093812;28;20068;-83
2023/12/31 07:11:37;;;;;;;;;;;;;;;6.99;65.68;100047.63;5093837;28;19916;-81
2023/12/31 07:14:02;;;;;;;;;;;;;;;7.05;66.52;100048.00;5093901;28;19941;-82
2023/12/31 07:16:27;;;;;;;;;;;;;;;7.03;66.25;100053.41;5094075;28;19912;-82
2023/12/31 07:18:53;;;;;;;;;;;;;;;7.02;66.69;100049.13;5093605;28;19919;-82
2023/12/31 07:21:24;;;;;;;;;;;;;;;7.05;66.87;100045.38;5093526;28;19912;-81
2023/12/31 07:23:50;;;;;;;;;;;;;;;7.06;66.90;100049.66;5093710;28;19912;-81
2023/12/31 07:26:33;;;;;;;;;;;;;;;7.07;67.18;100053.94;5093538;28;19923;-82
2023/12/31 07:28:58;;;;;;;;;;;;;;;7.11;66.50;100056.16;5093297;28;19955;-82
2023/12/31 07:31:23;;;;;;;;;;;;;;;7.13;66.34;100058.63;5093409;28;20009;-84
2023/12/31 07:33:50;;;;;;;;;;;;;;;7.15;66.81;100051.44;5093656;28;20320;-81
2023/12/31 07:36:15;;;;;;;;;;;;;;;7.20;66.14;100062.34;5092117;28;19969;-83
2023/12/31 07:38:42;;;;;;;;;;;;;;;7.24;66.91;100063.69;5093431;28;19916;-83
2023/12/31 07:41:10;;;;;;;;;;;;;;;7.29;66.62;100066.72;5091441;28;19952;-82
2023/12/31 07:43:35;;;;;;;;;;;;;;;7.34;66.13;100069.75;5093137;28;19912;-81
2023/12/31 07:46:01;;;;;;;;;;;;;;;7.38;66.22;100076.38;5092139;28;19961;-82
2023/12/31 07:48:26;;;;;;;;;;;;;;;7.41;66.70;100070.81;5091836;28;20351;-82
2023/12/31 07:50:51;;;;;;;;;;;;;;;7.46;65.79;100065.16;5092935;28;19951;-84
2023/12/31 07:53:16;;;;;;;;;;;;;;;7.52;66.06;100072.47;5091866;28;20376;-82
2023/12/31 07:55:42;;;;;;;;;;;;;;;7.58;65.71;100077.97;5092961;28;19923;-84
2023/12/31 07:58:07;;;;;;;;;;;;;;;7.67;66.22;100081.50;5092862;28;20373;-81
2023/12/31 08:00:33;;;;;;;;;;;;;;;7.73;65.46;100080.09;5092744;28;19912;-82
2023/12/31 08:02:58;;;;;;;;;;;;;;;7.77;65.90;100079.66;5091750;28;20304;-83
2023/12/31 08:05:24;;;;;;;;;;;;;;;7.84;65.33;100077.28;5092669;28;20308;-83
2023/12/31 08:07:49;;;;;;;;;;;;;;;7.87;65.46;100082.25;5092740;28;19912;-82
2023/12/31 08:10:14;;;;;;;;;;;;;;;7.91;65.53;100084.44;5092739;28;20032;-83
2023/12/31 08:12:39;;;;;;;;;;;;;;;7.95;65.63;100084.97;5091306;28;19916;-83
2023/12/31 08:15:05;;;;;;;;;;;;;;;7.98;65.65;100095.19;5092666;28;19916;-83
2023/12/31 08:17:31;;;;;;;;;;;;;;;8.04;65.42;100085.88;5092648;28;19912;-84
2023/12/31 08:19:56;;;;;;;;;;;;;;;8.07;65.53;100086.41;5092556;28;19981;-81
2023/12/31 08:22:22;;;;;;;;;;;;;;;8.11;65.72;100092.19;5092517;28;19912;-84
2023/12/31 08:24:47;;;;;;;;;;;;;;;8.17;65.25;100094.22;5092578;28;20274;-83
2023/12/31 08:27:12;;;;;;;;;;;;;;;8.21;65.29;100096.44;5092415;28;19978;-83
2023/12/31 08:29:40;;;;;;;;;;;;;;;8.28;64.85;100101.94;5092256;28;19912;-83
2023/12/31 08:32:05;;;;;;;;;;;;;;;8.31;65.73;100095.53;5092213;28;19920;-81
2023/12/31 08:34:31;;;;;;;;;;;;;;;8.35;64.64;100096.91;5092580;28;19912;-83
2023/12/31 08:36:56;;;;;;;;;;;;;;;8.40;65.69;100103.38;5092372;28;20438;-81
2023/12/31 08:39:21;;;;;;;;;;;;;;;8.47;65.96;100104.44;5092216;28;19912;-83
2023/12/31 08:41:47;;;;;;;;;;;;;;;8.55;65.42;100090.53;5092196;28;19919;-81
2023/12/31 08:44:12;;;;;;;;;;;;;;;8.62;65.34;100093.38;5092107;28;19965;-83
2023/12/31 08:46:37;;;;;;;;;;;;;;;8.69;65.31;100091.78;5092105;28;20339;-83
2023/12/31 08:49:03;;;;;;;;;;;;;;;8.76;63.81;100093.66;5090958;28;20300;-83
2023/12/31 08:51:28;;;;;;;;;;;;;;;8.80;64.56;100100.28;5090767;28;19970;-82
2023/12/31 08:53:54;;;;;;;;;;;;;;;8.85;64.07;100097.19;5091897;28;19965;-83
2023/12/31 08:56:19;;;;;;;;;;;;;;;8.89;65.60;100095.88;5091826;28;19965;-82
2023/12/31 08:58:45;;;;;;;;;;;;;;;8.95;65.45;100097.94;5091286;28;19916;-82
2023/12/31 09:01:12;;;;;;;;;;;;;;;9.02;65.74;100084.97;5090738;28;20301;-81
2023/12/31 09:03:37;;;;;;;;;;;;;;;9.08;65.53;100079.91;5090621;28;20012;-81
2023/12/31 09:06:03;;;;;;;;;;;;;;;9.13;65.39;100087.34;5091741;28;19951;-81
2023/12/31 09:08:28;;;;;;;;;;;;;;;9.17;65.52;100083.44;5091850;28;19912;-82
2023/12/31 09:10:55;;;;;;;;;;;;;;;9.22;63.33;100081.16;5091643;28;19952;-81
2023/12/31 09:13:23;;;;;;;;;;;;;;;9.18;64.47;100085.09;5091791;28;19919;-82
2023/12/31 09:15:48;;;;;;;;;;;;;;;9.17;65.23;100084.25;5090886;28;19912;-82
2023/12/31 09:18:13;;;;;;;;;;;;;;;9.17;65.66;100080.78;5090466;28;19912;-82
2023/12/31 09:20:39;;;;;;;;;;;;;;;9.17;65.78;100078.16;5091593;28;20037;-81
2023/12/31 09:23:04;;;;;;;;;;;;;;;9.16;66.09;100081.78;5091982;28;19968;-82
2023/12/31 09:25:29;;;;;;;;;;;;;;;9.20;66.06;100077.84;5091450;28;19919;-82
2023/12/31 09:27:54;;;;;;;;;;;;;;;9.25;66.09;100062.41;5091500;28;20000;-82
2023/12/31 09:30:20;;;;;;;;;;;;;;;9.33;65.34;100058.97;5091519;28;19912;-81
2023/12/31 09:32:45;;;;;;;;;;;;;;;9.38;65.40;100070.69;5090259;28;19927;-82
2023/12/31 09:35:10;;;;;;;;;;;;;;;9.44;66.02;100069.25;5091760;28;19912;-83
2023/12/31 09:37:36;;;;;;;;;;;;;;;9.49;65.72;100054.59;5091989;28;19985;-82
2023/12/31 09:40:02;;;;;;;;;;;;;;;9.59;64.36;100048.38;5091537;28;20358;-83
2023/12/31 09:42:28;;;;;;;;;;;;;;;9.66;64.90;100044.13;5090292;28;19938;-82
2023/12/31 09:44:54;;;;;;;;;;;;;;;9.76;64.73;100035.13;5091799;28;20400;-82
2023/12/31 09:47:19;;;;;;;;;;;;;;;9.86;64.94;100042.88;5090285;28;20377;-81
2023/12/31 09:49:44;;;;;;;;;;;;;;;9.95;63.00;100041.91;5091470;28;20014;-81
2023/12/31 09:52:10;;;;;;;;;;;;;;;9.95;65.14;100046.38;5091320;28;19959;-83
2023/12/31 09:54:39;;;;;;;;;;;;;;;10.00;64.08;100046.72;5088447;28;20403;-82
2023/12/31 09:57:04;;;;;;;;;;;;;;;10.03;63.51;100057.75;5090030;28;19911;-82
2023/12/31 09:59:30;;;;;;;;;;;;;;;10.05;65.06;100050.50;5090035;28;19984;-82
2023/12/31 10:01:58;;;;;;;;;;;;;;;9.73;64.69;99984.50;5091298;28;19919;-81
2023/12/31 10:04:23;;;;;;;;;;;;;;;10.12;64.95;100046.22;5092078;28;20002;-84
2023/12/31 10:06:50;;;;;;;;;;;;;;;10.18;64.79;100040.31;5094963;28;19959;-81
2023/12/31 10:09:17;;;;;;;;;;;;;;;10.23;64.55;100031.09;5094985;28;19916;-82
2023/12/31 10:11:44;;;;;;;;;;;;;;;10.28;63.25;100020.88;5093623;28;19999;-82
2023/12/31 10:14:09;;;;;;;;;;;;;;;10.31;64.08;100017.91;5095380;28;19920;-83
2023/12/31 10:16:36;;;;;;;;;;;;;;;10.33;63.67;100016.75;5094962;28;19912;-82
2023/12/31 10:19:02;;;;;;;;;;;;;;;10.38;62.76;100016.25;5093635;28;19912;-82
2023/12/31 10:21:27;;;;;;;;;;;;;;;10.39;64.69;100017.91;5094813;28;19923;-81
2023/12/31 10:23:52;;;;;;;;;;;;;;;10.44;63.94;100010.34;5094838;28;20312;-83
2023/12/31 10:26:18;;;;;;;;;;;;;;;10.49;64.99;100000.94;5094852;28;19912;-82
2023/12/31 10:28:43;;;;;;;;;;;;;;;10.54;63.51;99997.81;5094678;28;19912;-82
2023/12/31 10:31:10;;;;;;;;;;;;;;;10.54;63.42;100000.44;5094536;28;19924;-82
2023/12/31 10:33:37;;;;;;;;;;;;;;;10.54;63.01;99994.34;5094603;28;19916;-83
2023/12/31 10:36:05;;;;;;;;;;;;;;;10.53;63.78;99992.69;5093342;28;20391;-83
2023/12/31 10:38:43;;;;;;;;;;;;;;;10.52;62.94;99986.59;5094536;28;19913;-82
2023/12/31 10:41:09;;;;;;;;;;;;;;;10.50;63.80;99986.75;5093253;28;19912;-83
2023/12/31 10:43:39;;;;;;;;;;;;;;;10.49;63.02;99992.19;5093108;28;19912;-82
2023/12/31 10:46:06;;;;;;;;;;;;;;;10.44;63.27;99976.88;5094161;28;19912;-83
2023/12/31 10:48:32;;;;;;;;;;;;;;;10.43;64.40;99974.38;5094331;28;19999;-82
2023/12/31 10:50:59;;;;;;;;;;;;;;;10.43;64.13;99969.94;5094242;28;20385;-81
2023/12/31 10:53:25;;;;;;;;;;;;;;;10.44;64.67;99958.38;5092969;28;20410;-82
2023/12/31 10:55:52;;;;;;;;;;;;;;;10.45;64.12;99959.22;5094081;28;20001;-81
2023/12/31 10:58:18;;;;;;;;;;;;;;;10.46;64.27;99942.38;5092851;28;19999;-82
2023/12/31 11:00:44;;;;;;;;;;;;;;;10.48;64.33;99941.22;5092926;28;20415;-81
2023/12/31 11:03:13;;;;;;;;;;;;;;;10.50;63.62;99935.78;5092948;28;19912;-81
2023/12/31 11:05:40;;;;;;;;;;;;;;;10.53;64.06;99931.97;5092701;28;19919;-81
2023/12/31 11:08:05;;;;;;;;;;;;;;;10.53;64.14;99930.16;5094242;28;19937;-82
2023/12/31 11:10:31;;;;;;;;;;;;;;;10.57;64.38;99920.06;5093966;28;19912;-81
2023/12/31 11:12:57;;;;;;;;;;;;;;;10.61;63.94;99921.38;5094033;28;19916;-82
2023/12/31 11:15:24;;;;;;;;;;;;;;;10.64;64.72;99926.34;5093819;28;19995;-81
2023/12/31 11:18:04;;;;;;;;;;;;;;;10.67;64.19;99918.06;5093940;28;19955;-81
2023/12/31 11:20:48;;;;;;;;;;;;;;;10.71;62.74;99920.19;5093710;28;20440;-81
2023/12/31 11:23:17;;;;;;;;;;;;;;;10.71;63.52;99911.47;5092579;28;19912;-81
2023/12/31 11:25:46;;;;;;;;;;;;;;;10.73;64.33;99914.75;5093732;28;19919;-81
2023/12/31 11:28:11;;;;;;;;;;;;;;;10.75;64.29;99913.59;5092319;28;19912;-81
2023/12/31 11:30:50;;;;;;;;;;;;;;;10.77;63.81;99901.03;5093705;28;19935;-81
2023/12/31 11:33:16;;;;;;;;;;;;;;;10.81;62.98;99904.16;5093524;28;19920;-81
2023/12/31 11:35:42;;;;;;;;;;;;;;;10.80;63.56;99897.22;5093467;28;20381;-82
2023/12/31 11:38:07;;;;;;;;;;;;;;;10.81;63.31;99897.06;5092127;28;19912;-81
2023/12/31 11:40:34;;;;;;;;;;;;;;;10.86;63.35;99899.19;5093312;28;19918;-81
2023/12/31 11:43:08;;;;;;;;;;;;;;;10.88;63.31;99891.91;5091890;28;19969;-81
2023/12/31 11:45:44;;;;;;;;;;;;;;;10.89;63.24;99885.63;5093162;28;20385;-82
2023/12/31 11:48:25;;;;;;;;;;;;;;;10.89;63.49;99896.19;5093223;28;19916;-81
2023/12/31 11:50:56;;;;;;;;;;;;;;;10.89;62.96;99884.81;5093181;28;20384;-82
2023/12/31 11:53:22;;;;;;;;;;;;;;;10.88;63.38;99891.09;5091908;28;19999;-82
2023/12/31 11:55:57;;;;;;;;;;;;;;;10.87;63.28;99884.16;5091659;28;19951;-81
2023/12/31 11:58:25;;;;;;;;;;;;;;;10.87;63.19;99889.44;5092892;28;20415;-82
2023/12/31 12:00:51;;;;;;;;;;;;;;;10.83;63.86;99881.03;5091586;28;19912;-82
2023/12/31 12:03:16;;;;;;;;;;;;;;;10.81;64.00;99881.22;5092844;28;19912;-81
2023/12/31 12:05:43;;;;;;;;;;;;;;;10.81;64.60;99886.50;5091365;28;20431;-82
2023/12/31 12:08:10;;;;;;;;;;;;;;;10.79;63.65;99877.91;5091412;28;20388;-82
2023/12/31 12:10:35;;;;;;;;;;;;;;;10.77;65.06;99887.81;5091492;28;19916;-82
2023/12/31 12:13:01;;;;;;;;;;;;;;;10.75;64.56;99887.19;5092755;28;19923;-82
2023/12/31 12:15:32;;;;;;;;;;;;;;;10.75;64.55;99886.34;5091474;28;20286;-82
2023/12/31 12:17:59;;;;;;;;;;;;;;;10.73;65.20;99872.50;5091056;28;20331;-83
2023/12/31 12:20:25;;;;;;;;;;;;;;;10.71;64.77;99875.31;5092332;28;19915;-82
2023/12/31 12:22:50;;;;;;;;;;;;;;;10.71;65.20;99875.31;5092449;28;19912;-82
2023/12/31 12:25:15;;;;;;;;;;;;;;;10.69;64.62;99879.94;5091359;28;19922;-82
2023/12/31 12:27:41;;;;;;;;;;;;;;;10.66;65.37;99888.19;5092372;28;19965;-83
2023/12/31 12:30:06;;;;;;;;;;;;;;;10.64;65.17;99879.63;5092475;28;19912;-82
2023/12/31 12:32:32;;;;;;;;;;;;;;;10.62;64.81;99878.97;5092560;28;19922;-81
2023/12/31 12:35:01;;;;;;;;;;;;;;;10.61;64.62;99876.50;5090896;28;20304;-81
2023/12/31 12:37:26;;;;;;;;;;;;;;;10.60;65.00;99873.03;5092071;28;19976;-82
2023/12/31 12:39:55;;;;;;;;;;;;;;;10.57;66.23;99868.09;5092331;28;20376;-82
2023/12/31 12:42:23;;;;;;;;;;;;;;;10.55;65.10;99874.53;5092525;28;19961;-81